^^
Station Historical Data
Daily Summary for August 29, 2017 Units:  English    Metric   Both
« Previous Day
Next Day »
Daily Weekly Monthly Yearly Custom
  High: Low: Average:
Temperature: 64.4 °F 58.4 °F 61.2 °F
Dew Point: 59.6 °F 55.2 °F 57.6 °F
Humidity: 93% 81% 88%
Wind Speed: 2.0mph 0.0mph 0.3mph
Wind Gust: 9.0mph - -
Wind- - WSW
Pressure: 30.27 in 30.01 in -
Precipitation: 0.06 in    
Historical Graphs
 
 
Tabular Data for August 29, 2017
Time Temperature Dew Point Pressure Wind Wind Speed Wind Gust Humidity Rainfall Rate (Hourly) Conditions
00:00 60.7 °F 55.2 °F 30.27 in Calm   1.0 mph 82% 0.00 in FEW
00:15 60.5 °F 55.6 °F 30.27 in Calm     84% 0.00 in FEW
00:30 60.8 °F 55.9 °F 30.27 in Calm     84% 0.00 in FEW
00:45 60.9 °F 56.0 °F 30.27 in Calm     84% 0.00 in FEW
01:00 60.5 °F 55.6 °F 30.27 in Calm     84% 0.00 in FEW
02:15 59.4 °F 55.9 °F 30.25 in Calm   1.0 mph 88% 0.00 in CLR
02:30 59.6 °F 56.0 °F 30.25 in Calm   1.0 mph 88% 0.00 in CLR
02:45 59.3 °F 55.7 °F 30.24 in Calm   1.0 mph 88% 0.00 in CLR
03:00 59.0 °F 55.8 °F 30.23 in Calm     89% 0.00 in CLR
03:15 58.8 °F 55.9 °F 30.23 in Calm     90% 0.00 in FEW
03:30 58.7 °F 56.1 °F 30.23 in Calm   1.0 mph 91% 0.00 in FEW
03:45 58.5 °F 55.9 °F 30.23 in Calm     91% 0.00 in FEW
04:00 58.6 °F 55.9 °F 30.23 in Calm   1.0 mph 91% 0.00 in FEW
04:15 58.6 °F 56.3 °F 30.23 in Calm     92% 0.00 in FEW
04:30 58.4 °F 56.1 °F 30.23 in Calm     92% 0.00 in FEW
04:45 58.7 °F 56.3 °F 30.23 in Calm   1.0 mph 92% 0.00 in FEW
05:00 58.7 °F 56.7 °F 30.23 in Calm     93% 0.00 in FEW
05:15 59.2 °F 57.2 °F 30.23 in Calm   2.0 mph 93% 0.00 in CLR
05:30 59.4 °F 57.4 °F 30.23 in Calm   1.0 mph 93% 0.00 in CLR
05:45 59.7 °F 57.7 °F 30.23 in Calm   3.0 mph 93% 0.00 in CLR
06:00 59.7 °F 57.7 °F 30.24 in Calm   2.0 mph 93% 0.00 in CLR
06:15 59.8 °F 57.8 °F 30.23 in Calm   3.0 mph 93% 0.00 in CLR
06:30 59.8 °F 57.5 °F 30.23 in Calm   2.0 mph 92% 0.00 in CLR
06:45 59.8 °F 57.5 °F 30.23 in Calm   3.0 mph 92% 0.00 in CLR
07:00 60.0 °F 57.4 °F 30.24 in Calm   3.0 mph 91% 0.00 in CLR
07:15 60.2 °F 57.2 °F 30.24 in Calm   2.0 mph 90% 0.00 in OVC
07:30 60.3 °F 57.4 °F 30.24 in Calm   2.0 mph 90% 0.00 in OVC
07:45 60.5 °F 57.6 °F 30.24 in Calm   4.0 mph 90% 0.00 in OVC
08:00 60.7 °F 57.4 °F 30.23 in Calm   4.0 mph 89% 0.00 in OVC
08:15 60.9 °F 57.6 °F 30.23 in Calm   7.0 mph 89% 0.00 in FEW
08:30 61.2 °F 57.6 °F 30.22 in Calm   4.0 mph 88% 0.00 in FEW
08:45 61.4 °F 57.5 °F 30.22 in Calm   4.0 mph 87% 0.00 in FEW
09:00 61.8 °F 57.6 °F 30.23 in Calm   3.0 mph 86% 0.00 in FEW
09:15 61.9 °F 57.3 °F 30.22 in NNW 1.0 mph 7.0 mph 85% 0.00 in FEW
09:30 62.1 °F 57.5 °F 30.23 in North 1.0 mph 4.0 mph 85% 0.00 in FEW
09:45 62.3 °F 57.4 °F 30.23 in Calm   5.0 mph 84% 0.00 in FEW
10:00 62.3 °F 57.4 °F 30.22 in NW 1.0 mph 4.0 mph 84% 0.00 in FEW
10:15 62.5 °F 57.6 °F 30.22 in NW 2.0 mph 5.0 mph 84% 0.00 in FEW
10:30 62.6 °F 57.4 °F 30.22 in South 1.0 mph 9.0 mph 83% 0.00 in FEW
10:45 62.7 °F 57.5 °F 30.22 in West 1.0 mph 6.0 mph 83% 0.00 in FEW
11:00 62.8 °F 57.2 °F 30.21 in West 1.0 mph 6.0 mph 82% 0.00 in FEW
11:15 62.9 °F 57.6 °F 30.22 in NW 1.0 mph 5.0 mph 83% 0.00 in FEW
11:30 63.0 °F 57.4 °F 30.21 in WSW 2.0 mph 6.0 mph 82% 0.00 in FEW
11:45 63.5 °F 57.9 °F 30.21 in Calm   4.0 mph 82% 0.00 in FEW
12:00 63.9 °F 58.0 °F 30.21 in NNW 1.0 mph 6.0 mph 81% 0.00 in FEW
12:15 64.4 °F 58.4 °F 30.21 in Calm   7.0 mph 81% 0.00 in SCT
12:30 64.2 °F 58.2 °F 30.20 in NNE 1.0 mph 7.0 mph 81% 0.00 in SCT
12:45 64.2 °F 58.2 °F 30.20 in NNW 1.0 mph 8.0 mph 81% 0.00 in SCT
13:00 64.0 °F 58.4 °F 30.20 in NNW 1.0 mph 6.0 mph 82% 0.00 in SCT
13:15 64.0 °F 58.4 °F 30.20 in NW 1.0 mph 6.0 mph 82% 0.00 in BKN
13:30 64.0 °F 58.4 °F 30.19 in Calm   5.0 mph 82% 0.00 in BKN
13:45 63.9 °F 58.6 °F 30.19 in Calm   6.0 mph 83% 0.00 in BKN
14:00 63.9 °F 59.3 °F 30.19 in Calm   3.0 mph 85% 0.00 in BKN
14:15 63.6 °F 58.7 °F 30.18 in ENE 2.0 mph 6.0 mph 84% 0.00 in -RA
14:30 63.3 °F 59.1 °F 30.18 in Calm   3.0 mph 86% 0.00 in -RA
14:45 63.3 °F 59.0 °F 30.17 in NNE 1.0 mph 3.0 mph 86% 0.00 in -RA
15:00 63.4 °F 59.5 °F 30.16 in Calm   2.0 mph 87% 0.00 in -RA
15:15 63.6 °F 59.6 °F 30.15 in Calm   2.0 mph 87% 0.00 in -RA
15:30 63.5 °F 59.6 °F 30.14 in Calm   2.0 mph 87% 0.01 in -RA
15:45 63.4 °F 59.5 °F 30.14 in Calm   2.0 mph 87% 0.00 in -RA
16:00 63.1 °F 59.5 °F 30.14 in Calm   2.0 mph 88% 0.00 in -RA
16:15 62.7 °F 59.1 °F 30.14 in Calm   1.0 mph 88% 0.00 in -RA
16:30 62.5 °F 59.2 °F 30.12 in SSW 1.0 mph 4.0 mph 89% 0.01 in -RA
16:45 62.1 °F 58.8 °F 30.11 in West 1.0 mph 4.0 mph 89% 0.00 in -RA
17:00 61.9 °F 58.3 °F 30.13 in Calm   3.0 mph 88% 0.00 in -RA
17:15 61.5 °F 58.2 °F 30.11 in Calm   3.0 mph 89% 0.00 in -RA
17:30 61.3 °F 57.7 °F 30.11 in NW 1.0 mph 3.0 mph 88% 0.00 in -RA
17:45 61.4 °F 58.1 °F 30.10 in Calm   3.0 mph 89% 0.00 in -RA
18:00 61.6 °F 58.0 °F 30.11 in Calm   3.0 mph 88% 0.00 in -RA
18:15 61.7 °F 58.5 °F 30.11 in Calm   2.0 mph 89% 0.00 in BKN
18:30 61.6 °F 58.3 °F 30.10 in Calm   1.0 mph 89% 0.00 in BKN
18:45 61.4 °F 58.4 °F 30.09 in Calm   1.0 mph 90% 0.00 in BKN
19:00 61.2 °F 58.2 °F 30.10 in Calm   1.0 mph 90% 0.00 in BKN
19:15 61.1 °F 58.4 °F 30.08 in Calm   1.0 mph 91% 0.00 in BKN
19:30 60.8 °F 57.8 °F 30.08 in Calm   1.0 mph 90% 0.00 in BKN
19:45 61.0 °F 58.0 °F 30.08 in Calm   4.0 mph 90% 0.00 in BKN
20:00 61.1 °F 57.8 °F 30.08 in Calm   3.0 mph 89% 0.01 in BKN
20:15 60.7 °F 57.7 °F 30.08 in Calm   2.0 mph 90% 0.00 in -RA
20:30 60.5 °F 57.8 °F 30.08 in Calm   1.0 mph 91% 0.00 in -RA
20:45 60.3 °F 58.0 °F 30.08 in Calm   1.0 mph 92% 0.00 in -RA
21:00 60.1 °F 57.8 °F 30.08 in Calm   3.0 mph 92% 0.01 in -RA
21:15 60.1 °F 57.5 °F 30.06 in WSW 1.0 mph 4.0 mph 91% 0.00 in -RA
21:30 60.2 °F 57.3 °F 30.07 in Calm   5.0 mph 90% 0.00 in -RA
21:45 60.2 °F 57.3 °F 30.06 in WSW 1.0 mph 6.0 mph 90% 0.00 in -RA
22:00 60.1 °F 57.2 °F 30.05 in Calm   4.0 mph 90% 0.00 in -RA
22:15 59.6 °F 56.7 °F 30.05 in NNE 1.0 mph 6.0 mph 90% 0.01 in -RA
22:30 59.5 °F 56.9 °F 30.06 in Calm   3.0 mph 91% 0.00 in -RA
22:45 59.4 °F 56.8 °F 30.07 in Calm   3.0 mph 91% 0.00 in -RA
23:00 59.3 °F 57.0 °F 30.06 in Calm   1.0 mph 92% 0.00 in -RA
23:15 59.3 °F 57.0 °F 30.04 in Calm   3.0 mph 92% 0.00 in -RA
23:30 59.1 °F 57.1 °F 30.01 in West 1.0 mph 8.0 mph 93% 0.01 in -RA
23:45 59.0 °F 57.0 °F 30.04 in West 1.0 mph 4.0 mph 93% 0.00 in -RA
TarryTown NY Weather
Compliments of Weather Underground - 1.5 mb